createdAt,value
2022-09-23T00:01:10.680Z,1.17
2022-09-23T00:03:39.765Z,1.35
2022-09-23T00:06:10.632Z,1.80
2022-09-23T00:08:37.765Z,1.25
2022-09-23T00:11:12.316Z,1.20
2022-09-23T00:13:41.388Z,1.50
2022-09-23T00:16:14.388Z,1.30
2022-09-23T00:18:41.992Z,1.50
2022-09-23T00:21:13.904Z,1.20
2022-09-23T00:23:42.972Z,1.00
2022-09-23T00:26:14.088Z,1.00
2022-09-23T00:28:40.673Z,1.02
2022-09-23T00:31:13.523Z,0.80
2022-09-23T00:33:42.958Z,1.00
2022-09-23T00:36:15.571Z,1.60
2022-09-23T00:38:43.367Z,1.40
2022-09-23T00:41:11.286Z,1.80
2022-09-23T00:43:50.992Z,1.65
2022-09-23T00:46:26.490Z,1.52
2022-09-23T00:49:00.026Z,1.30
2022-09-23T00:51:34.732Z,1.80
2022-09-23T00:54:02.756Z,1.90
2022-09-23T00:56:31.028Z,2.17
2022-09-23T00:58:57.871Z,1.50
2022-09-23T01:01:25.592Z,1.40
2022-09-23T01:03:54.570Z,1.42
2022-09-23T01:06:21.504Z,1.90
2022-09-23T01:08:48.461Z,1.92
2022-09-23T01:11:23.043Z,2.10
2022-09-23T01:14:19.055Z,1.80
2022-09-23T01:17:19.369Z,2.92
2022-09-23T01:20:02.353Z,2.25
2022-09-23T01:22:57.142Z,3.25
2022-09-23T01:27:59.310Z,1.92
2022-09-23T01:30:48.185Z,1.90
2022-09-23T01:33:30.439Z,1.58
2022-09-23T01:36:08.631Z,1.75
2022-09-23T01:38:59.121Z,1.55
2022-09-23T01:41:44.225Z,1.33
2022-09-23T01:44:22.950Z,1.30
2022-09-23T01:46:54.738Z,1.40
2022-09-23T01:49:28.876Z,1.75
2022-09-23T01:54:39.623Z,1.60
2022-09-23T01:57:18.775Z,1.63
2022-09-23T01:59:55.985Z,1.90
2022-09-23T02:02:31.584Z,2.10
2022-09-23T02:05:04.456Z,2.10
2022-09-23T02:07:40.026Z,2.00
2022-09-23T02:10:14.053Z,2.20
2022-09-23T02:12:49.309Z,1.95
2022-09-23T02:15:19.228Z,1.90
2022-09-23T02:17:58.799Z,1.70
2022-09-23T02:20:30.034Z,1.60
2022-09-23T02:23:03.082Z,1.90
2022-09-23T02:25:39.986Z,1.50
2022-09-23T02:28:19.231Z,1.70
2022-09-23T02:30:52.790Z,2.58
2022-09-23T02:33:36.117Z,2.35
2022-09-23T02:36:12.485Z,2.30
2022-09-23T02:38:52.258Z,2.00
2022-09-23T02:41:46.178Z,2.20
2022-09-23T02:44:16.475Z,2.10
2022-09-23T02:46:43.966Z,1.98
2022-09-23T02:49:13.995Z,2.13
2022-09-23T02:51:40.946Z,1.88
2022-09-23T02:54:10.728Z,1.70
2022-09-23T02:56:37.468Z,1.80
2022-09-23T02:59:04.329Z,1.90
2022-09-23T03:02:01.745Z,2.38
2022-09-23T03:04:50.423Z,2.25
2022-09-23T03:07:24.739Z,1.60
2022-09-23T03:10:26.155Z,2.40
2022-09-23T03:13:17.340Z,2.35
2022-09-23T03:15:57.286Z,2.80
2022-09-23T03:18:31.696Z,2.17
2022-09-23T03:21:12.069Z,2.08
2022-09-23T03:23:41.811Z,1.85
2022-09-23T03:26:17.525Z,1.80
2022-09-23T03:28:45.592Z,1.52
2022-09-23T03:31:14.151Z,1.30
2022-09-23T03:33:47.036Z,1.80
2022-09-23T03:36:36.320Z,1.30
2022-09-23T03:39:08.483Z,1.33
2022-09-23T03:41:40.225Z,1.25
2022-09-23T03:44:08.096Z,1.10
2022-09-23T03:46:36.166Z,0.88
2022-09-23T03:49:15.386Z,1.13
2022-09-23T03:51:44.665Z,1.10
2022-09-23T03:54:11.756Z,0.90
2022-09-23T03:56:38.300Z,1.27
2022-09-23T03:59:04.749Z,1.20
2022-09-23T04:01:31.248Z,0.90
2022-09-23T04:03:57.898Z,1.00
2022-09-23T04:06:24.423Z,1.50
2022-09-23T04:08:50.877Z,1.25
2022-09-23T04:11:17.324Z,0.95
2022-09-23T04:13:43.829Z,1.50
2022-09-23T04:16:10.353Z,1.95
2022-09-23T04:18:36.842Z,1.98
2022-09-23T04:21:03.570Z,2.20
2022-09-23T04:23:35.172Z,2.13
2022-09-23T04:26:01.729Z,2.20
2022-09-23T04:28:28.244Z,2.00
2022-09-23T04:30:56.119Z,2.10
2022-09-23T04:33:22.665Z,2.17
2022-09-23T04:35:53.321Z,1.83
2022-09-23T04:38:19.823Z,1.83
2022-09-23T04:40:46.597Z,1.98
2022-09-23T04:43:15.792Z,2.30
2022-09-23T04:45:43.488Z,1.90
2022-09-23T04:48:11.311Z,1.88
2022-09-23T04:50:37.829Z,2.33
2022-09-23T04:53:04.944Z,1.98
2022-09-23T04:55:32.032Z,1.65
2022-09-23T04:57:58.801Z,2.15
2022-09-23T05:00:26.926Z,1.90
2022-09-23T05:02:53.384Z,1.70
2022-09-23T05:05:20.973Z,1.98
2022-09-23T05:07:48.470Z,1.67
2022-09-23T05:10:15.887Z,1.83
2022-09-23T05:12:42.385Z,1.75
2022-09-23T05:15:09.127Z,1.30
2022-09-23T05:17:37.318Z,1.73
2022-09-23T05:20:04.620Z,1.77
2022-09-23T05:22:31.386Z,1.40
2022-09-23T05:24:59.805Z,2.10
2022-09-23T05:27:26.359Z,1.75
2022-09-23T05:29:53.076Z,1.80
2022-09-23T05:32:20.289Z,1.73
2022-09-23T05:34:46.879Z,1.80
2022-09-23T05:37:13.370Z,1.42
2022-09-23T05:39:39.836Z,1.88
2022-09-23T05:42:06.823Z,2.20
2022-09-23T05:44:33.360Z,1.60
2022-09-23T05:46:59.895Z,1.85
2022-09-23T05:49:42.626Z,1.70
2022-09-23T05:52:12.827Z,2.33
2022-09-23T05:54:40.208Z,2.10
2022-09-23T05:57:06.724Z,2.13
2022-09-23T05:59:33.283Z,2.30
2022-09-23T06:02:01.216Z,2.08
2022-09-23T06:04:27.731Z,1.83
2022-09-23T06:06:54.194Z,2.05
2022-09-23T06:09:20.688Z,2.20
2022-09-23T06:11:47.224Z,1.50
2022-09-23T06:14:14.886Z,1.55
2022-09-23T06:16:41.650Z,1.23
2022-09-23T06:19:08.179Z,2.10
2022-09-23T06:21:37.844Z,1.60
2022-09-23T06:24:05.983Z,1.50
2022-09-23T06:26:34.849Z,1.92
2022-09-23T06:29:02.754Z,2.08
2022-09-23T06:31:29.533Z,1.80
2022-09-23T06:34:06.557Z,2.00
2022-09-23T06:36:43.144Z,1.90
2022-09-23T06:39:10.173Z,1.52
2022-09-23T06:41:36.682Z,2.30
2022-09-23T06:44:04.349Z,2.83
2022-09-23T06:46:31.843Z,2.10
2022-09-23T06:48:58.918Z,2.17
2022-09-23T06:51:25.459Z,1.67
2022-09-23T06:53:52.543Z,2.00
2022-09-23T06:56:21.009Z,1.88
2022-09-23T06:58:47.761Z,1.80
2022-09-23T07:01:16.818Z,2.28
2022-09-23T07:03:44.916Z,2.20
2022-09-23T07:06:11.800Z,1.83
2022-09-23T07:08:38.460Z,1.92
2022-09-23T07:11:07.001Z,2.25
2022-09-23T07:13:33.642Z,1.90
2022-09-23T07:16:02.062Z,1.58
2022-09-23T07:18:36.204Z,1.52
2022-09-23T07:21:15.598Z,1.77
2022-09-23T07:23:43.335Z,2.35
2022-09-23T07:26:10.290Z,1.75
2022-09-23T07:28:37.173Z,2.15
2022-09-23T07:31:09.490Z,2.33
2022-09-23T07:33:38.101Z,2.53
2022-09-23T07:36:10.612Z,2.00
2022-09-23T07:38:40.497Z,1.85
2022-09-23T07:41:13.260Z,1.48
2022-09-23T07:43:41.141Z,1.00
2022-09-23T07:46:11.055Z,1.73
2022-09-23T07:48:38.118Z,1.45
2022-09-23T07:51:38.663Z,1.20
2022-09-23T07:54:11.937Z,2.28
2022-09-23T07:56:38.985Z,2.38
2022-09-23T07:59:08.802Z,2.22
2022-09-23T08:01:38.848Z,1.63
2022-09-23T08:04:08.927Z,1.40
2022-09-23T08:06:36.759Z,2.65
2022-09-23T08:09:03.809Z,2.30
2022-09-23T08:11:31.211Z,2.30
2022-09-23T08:13:57.682Z,2.35
2022-09-23T08:16:24.264Z,3.00
2022-09-23T08:18:50.822Z,3.15
2022-09-23T08:21:22.064Z,3.20
2022-09-23T08:23:49.430Z,2.65
2022-09-23T08:26:20.771Z,2.53
2022-09-23T08:28:49.445Z,2.80
2022-09-23T08:31:16.020Z,1.90
2022-09-23T08:33:43.131Z,1.65
2022-09-23T08:36:09.655Z,1.40
2022-09-23T08:38:36.199Z,1.20
2022-09-23T08:41:16.438Z,1.88
2022-09-23T08:43:49.601Z,1.30
2022-09-23T08:46:24.489Z,1.40
2022-09-23T08:48:51.675Z,1.70
2022-09-23T08:51:29.283Z,1.70
2022-09-23T08:53:55.854Z,1.52
2022-09-23T08:56:24.056Z,1.67
2022-09-23T08:59:30.001Z,1.50
2022-09-23T09:02:05.440Z,1.42
2022-09-23T09:04:45.558Z,3.08
2022-09-23T09:07:36.650Z,2.30
2022-09-23T09:10:16.814Z,1.77
2022-09-23T09:12:53.928Z,1.60
2022-09-23T09:15:25.155Z,1.88
2022-09-23T09:18:12.993Z,1.45
2022-09-23T09:20:51.738Z,1.25
2022-09-23T09:23:43.057Z,1.60
2022-09-23T09:26:19.558Z,1.30
2022-09-23T09:29:06.536Z,2.13
2022-09-23T09:31:47.668Z,1.90
2022-09-23T09:34:33.053Z,1.63
2022-09-23T09:37:07.210Z,1.73
2022-09-23T09:39:35.494Z,1.48
2022-09-23T09:42:03.373Z,1.85
2022-09-23T09:44:45.898Z,2.03
2022-09-23T09:47:28.615Z,1.73
2022-09-23T09:50:10.940Z,1.85
2022-09-23T09:52:38.456Z,2.17
2022-09-23T09:55:14.096Z,1.80
2022-09-23T09:58:04.053Z,1.52
2022-09-23T10:00:30.509Z,2.33
2022-09-23T10:03:20.169Z,2.35
2022-09-23T10:05:46.765Z,1.88
2022-09-23T10:08:24.767Z,1.88
2022-09-23T10:11:05.401Z,1.60
2022-09-23T10:13:32.072Z,1.67
2022-09-23T10:16:03.890Z,1.63
2022-09-23T10:18:50.801Z,1.50
2022-09-23T10:21:25.458Z,1.50
2022-09-23T10:23:58.026Z,1.30
2022-09-23T10:26:34.248Z,1.30
2022-09-23T10:29:24.733Z,1.27
2022-09-23T10:32:13.836Z,1.30
2022-09-23T10:34:45.025Z,1.25
2022-09-23T10:37:18.103Z,1.50
2022-09-23T10:40:03.305Z,1.30
2022-09-23T10:43:10.204Z,1.02
2022-09-23T10:45:59.599Z,1.38
2022-09-23T10:48:44.939Z,1.38
2022-09-23T10:51:25.484Z,1.45
2022-09-23T10:53:58.478Z,1.48
2022-09-23T10:56:30.904Z,1.80
2022-09-23T10:59:30.235Z,1.35
2022-09-23T11:02:22.572Z,1.42
2022-09-23T11:05:15.299Z,1.48
2022-09-23T11:08:00.077Z,1.38
2022-09-23T11:10:45.905Z,1.00
2022-09-23T11:13:30.515Z,1.20
2022-09-23T11:19:15.847Z,1.20
2022-09-23T11:21:49.702Z,1.08
2022-09-23T11:24:42.968Z,1.00
2022-09-23T11:27:28.056Z,1.20
2022-09-23T11:30:12.653Z,1.02
2022-09-23T11:35:53.365Z,1.10
2022-09-23T11:38:25.989Z,1.02
2022-09-23T11:40:58.859Z,0.90
2022-09-23T11:43:33.464Z,0.95
2022-09-23T11:46:09.454Z,1.17
2022-09-23T11:48:59.564Z,1.48
2022-09-23T11:51:38.382Z,0.90
2022-09-23T11:54:19.813Z,0.70
2022-09-23T11:56:52.637Z,0.88
2022-09-23T11:59:40.637Z,0.80
2022-09-23T12:02:33.708Z,1.10
2022-09-23T12:05:15.807Z,0.90
2022-09-23T12:07:56.575Z,1.00
2022-09-23T12:10:32.982Z,1.20
2022-09-23T12:13:23.804Z,1.05
2022-09-23T12:16:29.200Z,0.75
2022-09-23T12:19:27.944Z,0.80
2022-09-23T12:22:31.399Z,1.13
2022-09-23T12:25:18.775Z,1.10
2022-09-23T12:27:50.259Z,1.05
2022-09-23T12:30:20.282Z,1.02
2022-09-23T12:32:47.416Z,0.98
2022-09-23T12:35:37.667Z,0.95
2022-09-23T12:38:13.394Z,0.90
2022-09-23T12:40:43.920Z,0.85
2022-09-23T12:43:30.576Z,0.98
2022-09-23T12:46:21.672Z,1.13
2022-09-23T12:48:58.018Z,0.98
2022-09-23T12:51:26.257Z,1.00
2022-09-23T12:53:56.190Z,1.05
2022-09-23T12:56:24.336Z,0.80
2022-09-23T12:58:50.912Z,0.88
2022-09-23T13:01:21.337Z,1.00
2022-09-23T13:04:11.389Z,0.80
2022-09-23T13:07:00.651Z,0.60
2022-09-23T13:09:33.405Z,0.80
2022-09-23T13:12:08.360Z,1.05
2022-09-23T13:14:37.371Z,0.73
2022-09-23T13:17:04.526Z,1.00
2022-09-23T13:19:35.377Z,0.98
2022-09-23T13:22:11.163Z,0.90
2022-09-23T13:24:43.066Z,0.70
2022-09-23T13:27:23.547Z,0.80
2022-09-23T13:30:21.208Z,0.93
2022-09-23T13:33:02.716Z,0.93
2022-09-23T13:35:35.361Z,1.00
2022-09-23T13:38:20.977Z,1.10
2022-09-23T13:40:47.634Z,0.98
2022-09-23T13:43:23.762Z,1.20
2022-09-23T13:45:51.067Z,1.00
2022-09-23T13:48:20.373Z,0.82
2022-09-23T13:50:53.322Z,0.80
2022-09-23T13:53:22.780Z,1.02
2022-09-23T13:55:59.576Z,0.77
2022-09-23T13:58:29.929Z,0.80
2022-09-23T14:00:56.631Z,0.80
2022-09-23T14:03:37.128Z,0.80
2022-09-23T14:06:14.552Z,1.10
2022-09-23T14:08:45.551Z,1.10
2022-09-23T14:11:17.350Z,0.88
2022-09-23T14:13:45.655Z,1.08
2022-09-23T14:16:15.002Z,1.08
2022-09-23T14:18:45.864Z,0.90
2022-09-23T14:21:34.935Z,0.60
2022-09-23T14:24:18.838Z,1.02
2022-09-23T14:26:52.071Z,0.80
2022-09-23T14:29:21.207Z,0.98
2022-09-23T14:32:00.603Z,1.20
2022-09-23T14:35:00.983Z,1.10
2022-09-23T14:37:55.151Z,1.02
2022-09-23T14:40:35.067Z,1.00
2022-09-23T14:43:24.977Z,0.90
2022-09-23T14:45:56.876Z,0.80
2022-09-23T14:48:32.989Z,1.00
2022-09-23T14:51:02.025Z,0.80
2022-09-23T14:53:41.468Z,1.05
2022-09-23T14:56:07.886Z,0.93
2022-09-23T14:58:52.003Z,0.90
2022-09-23T15:01:39.407Z,0.90
2022-09-23T15:04:10.787Z,0.73
2022-09-23T15:06:39.213Z,0.93
2022-09-23T15:09:09.551Z,1.00
2022-09-23T15:11:36.181Z,1.05
2022-09-23T15:14:36.019Z,1.00
2022-09-23T15:16:50.773Z,0.90
2022-09-23T15:19:20.351Z,1.00
2022-09-23T15:21:52.807Z,0.73
2022-09-23T15:24:41.518Z,1.00
2022-09-23T15:27:27.173Z,0.90
2022-09-23T15:29:54.087Z,0.90
2022-09-23T15:32:22.069Z,1.10
2022-09-23T15:34:50.402Z,0.80
2022-09-23T15:37:17.732Z,0.82
2022-09-23T15:39:44.288Z,0.70
2022-09-23T15:42:11.753Z,0.88
2022-09-23T15:44:38.239Z,1.23
2022-09-23T15:47:05.058Z,1.00
2022-09-23T15:49:36.680Z,0.90
2022-09-23T15:52:04.805Z,1.00
2022-09-23T15:54:35.130Z,0.60
2022-09-23T15:57:02.026Z,0.80
2022-09-23T15:59:31.031Z,0.77
2022-09-23T16:02:01.753Z,0.80
2022-09-23T16:04:28.453Z,0.93
2022-09-23T16:06:54.943Z,0.77
2022-09-23T16:09:21.428Z,1.00
2022-09-23T16:11:49.644Z,0.80
2022-09-23T16:14:17.503Z,0.80
2022-09-23T16:16:45.343Z,0.80
2022-09-23T16:19:12.344Z,0.93
2022-09-23T16:21:40.880Z,0.90
2022-09-23T16:24:18.543Z,0.80
2022-09-23T16:26:47.089Z,0.93
2022-09-23T16:29:13.780Z,0.88
2022-09-23T16:31:40.541Z,0.70
2022-09-23T16:34:07.161Z,0.80
2022-09-23T16:36:38.089Z,0.88
2022-09-23T16:39:07.418Z,0.70
2022-09-23T16:41:34.190Z,0.98
2022-09-23T16:44:04.291Z,0.85
2022-09-23T16:46:31.633Z,0.90
2022-09-23T16:48:58.830Z,1.20
2022-09-23T16:51:27.682Z,1.10
2022-09-23T16:53:56.079Z,1.10
2022-09-23T16:56:28.390Z,1.00
2022-09-23T16:58:55.602Z,0.98
2022-09-23T17:01:45.893Z,1.10
2022-09-23T17:04:14.038Z,0.90
2022-09-23T17:06:50.819Z,0.85
2022-09-23T17:09:19.833Z,0.82
2022-09-23T17:11:51.918Z,0.70
2022-09-23T17:14:18.397Z,0.70
2022-09-23T17:16:45.015Z,0.63
2022-09-23T17:19:12.369Z,0.80
2022-09-23T17:21:39.128Z,0.68
2022-09-23T17:24:06.081Z,0.60
2022-09-23T17:26:32.738Z,0.70
2022-09-23T17:29:00.290Z,0.55
2022-09-23T17:31:26.874Z,0.80
2022-09-23T17:33:53.609Z,1.30
2022-09-23T17:36:21.229Z,1.20
2022-09-23T17:38:48.899Z,1.10
2022-09-23T17:41:17.195Z,2.00
2022-09-23T17:43:44.674Z,1.88
2022-09-23T17:46:14.539Z,1.35
2022-09-23T17:48:41.660Z,1.30
2022-09-23T17:51:13.800Z,2.15
2022-09-23T17:53:42.305Z,1.77
2022-09-23T17:56:24.836Z,1.63
2022-09-23T17:58:53.262Z,1.50
2022-09-23T18:01:22.495Z,1.40
2022-09-23T18:03:54.132Z,1.20
2022-09-23T18:06:22.988Z,1.50
2022-09-23T18:08:50.926Z,1.50
2022-09-23T18:11:23.428Z,2.10
2022-09-23T18:14:00.418Z,2.22
2022-09-23T18:16:29.064Z,2.20
2022-09-23T18:18:57.858Z,1.70
2022-09-23T18:21:26.866Z,2.45
2022-09-23T18:23:53.297Z,3.20
2022-09-23T18:26:24.164Z,3.03
2022-09-23T18:28:53.642Z,2.20
2022-09-23T18:31:20.517Z,3.20
2022-09-23T18:33:51.461Z,3.10
2022-09-23T18:36:19.500Z,3.10
2022-09-23T18:38:46.646Z,3.38
2022-09-23T18:41:13.929Z,2.90
2022-09-23T18:43:43.202Z,2.58
2022-09-23T18:46:18.290Z,2.60
2022-09-23T18:49:03.977Z,2.53
2022-09-23T18:51:32.123Z,2.40
2022-09-23T18:54:00.446Z,2.75
2022-09-23T18:56:37.194Z,2.20
2022-09-23T18:59:06.260Z,2.58
2022-09-23T19:01:33.586Z,3.50
2022-09-23T19:04:02.167Z,2.70
2022-09-23T19:06:29.229Z,2.42
2022-09-23T19:08:55.884Z,2.55
2022-09-23T19:11:23.777Z,2.92
2022-09-23T19:14:03.098Z,2.80
2022-09-23T19:16:31.735Z,7.03
2022-09-23T19:18:59.525Z,6.68
2022-09-23T19:21:27.230Z,6.18
2022-09-23T19:23:56.120Z,5.10
2022-09-23T19:26:26.119Z,3.75
2022-09-23T19:28:58.162Z,3.40
2022-09-23T19:31:26.975Z,3.58
2022-09-23T19:33:56.340Z,3.03
2022-09-23T19:36:28.898Z,2.50
2022-09-23T19:38:57.822Z,2.70
2022-09-23T19:41:26.312Z,3.22
2022-09-23T19:43:53.206Z,3.03
2022-09-23T19:46:20.211Z,2.20
2022-09-23T19:48:47.000Z,2.25
2022-09-23T19:51:13.461Z,1.75
2022-09-23T19:53:42.980Z,1.70
2022-09-23T19:56:09.484Z,1.65
2022-09-23T19:58:36.034Z,1.80
2022-09-23T20:01:07.428Z,2.40
2022-09-23T20:03:34.108Z,2.47
2022-09-23T20:06:00.577Z,2.45
2022-09-23T20:08:27.199Z,2.50
2022-09-23T20:10:53.725Z,2.15
2022-09-23T20:13:20.309Z,2.20
2022-09-23T20:15:48.335Z,2.20
2022-09-23T20:18:15.383Z,2.30
2022-09-23T20:20:42.317Z,2.10
2022-09-23T20:23:10.915Z,2.25
2022-09-23T20:25:56.159Z,2.20
2022-09-23T20:28:25.584Z,1.50
2022-09-23T20:30:58.360Z,1.70
2022-09-23T20:33:24.892Z,1.90
2022-09-23T20:35:53.137Z,2.20
2022-09-23T20:38:19.705Z,2.25
2022-09-23T20:40:55.677Z,1.75
2022-09-23T20:43:22.314Z,2.42
2022-09-23T20:45:53.285Z,2.30
2022-09-23T20:48:21.014Z,2.35
2022-09-23T20:50:47.552Z,2.75
2022-09-23T20:53:14.014Z,1.85
2022-09-23T20:55:55.283Z,1.98
2022-09-23T20:58:29.267Z,1.90
2022-09-23T21:01:16.590Z,1.40
2022-09-23T21:03:45.812Z,1.42
2022-09-23T21:06:15.057Z,1.25
2022-09-23T21:08:44.365Z,1.58
2022-09-23T21:11:14.861Z,1.70
2022-09-23T21:13:46.813Z,2.00
2022-09-23T21:16:16.155Z,2.10
2022-09-23T21:18:43.925Z,2.30
2022-09-23T21:21:12.247Z,2.00
2022-09-23T21:23:39.657Z,1.92
2022-09-23T21:26:14.033Z,1.83
2022-09-23T21:28:42.915Z,1.50
2022-09-23T21:31:13.211Z,2.20
2022-09-23T21:33:39.776Z,1.90
2022-09-23T21:36:07.305Z,2.00
2022-09-23T21:38:35.761Z,2.53
2022-09-23T21:41:05.178Z,1.90
2022-09-23T21:43:34.022Z,1.67
2022-09-23T21:46:03.441Z,1.92
2022-09-23T21:48:31.764Z,2.00
2022-09-23T21:51:00.990Z,1.92
2022-09-23T21:53:29.477Z,2.58
2022-09-23T21:56:06.983Z,2.65
2022-09-23T21:58:35.201Z,2.35
2022-09-23T22:01:06.271Z,1.80
2022-09-23T22:03:32.986Z,2.50
2022-09-23T22:06:02.487Z,2.75
2022-09-23T22:08:36.717Z,2.40
2022-09-23T22:11:29.243Z,1.98
2022-09-23T22:13:56.928Z,1.88
2022-09-23T22:16:26.642Z,1.67
2022-09-23T22:18:57.079Z,1.60
2022-09-23T22:21:25.426Z,1.40
2022-09-23T22:23:53.154Z,1.98
2022-09-23T22:26:20.303Z,2.03
2022-09-23T22:29:05.099Z,2.42
2022-09-23T22:31:50.038Z,2.15
2022-09-23T22:34:37.641Z,2.03
2022-09-23T22:37:03.901Z,1.90
2022-09-23T22:39:30.463Z,1.90
2022-09-23T22:41:58.406Z,1.70
2022-09-23T22:44:25.534Z,2.13
2022-09-23T22:46:52.589Z,1.95
2022-09-23T22:49:19.794Z,1.75
2022-09-23T22:51:46.352Z,2.00
2022-09-23T22:54:12.986Z,2.00
2022-09-23T22:56:39.507Z,1.55
2022-09-23T22:59:07.771Z,1.50
2022-09-23T23:01:35.392Z,2.05
2022-09-23T23:04:02.577Z,1.73
2022-09-23T23:06:35.883Z,2.47
2022-09-23T23:09:07.394Z,2.35
2022-09-23T23:11:34.322Z,2.22
2022-09-23T23:14:02.264Z,1.80
2022-09-23T23:16:33.649Z,1.83
2022-09-23T23:19:01.257Z,1.83
2022-09-23T23:21:27.839Z,2.65
2022-09-23T23:23:54.290Z,2.20
2022-09-23T23:26:23.621Z,1.88
2022-09-23T23:28:51.569Z,1.60
2022-09-23T23:31:19.909Z,1.10
2022-09-23T23:33:47.631Z,1.15
2022-09-23T23:36:16.262Z,1.20
2022-09-23T23:38:44.570Z,1.10
2022-09-23T23:41:14.388Z,1.08
2022-09-23T23:43:42.915Z,1.40
2022-09-23T23:46:10.345Z,1.10
2022-09-23T23:48:38.288Z,1.50
2022-09-23T23:51:07.521Z,1.10
2022-09-23T23:53:36.300Z,1.30
2022-09-23T23:56:04.936Z,1.15
2022-09-23T23:58:31.878Z,1.30
